Time;durP1;ratioP1;P1;durP2;ratioP2;P2;SDS_P1;SDS_P2;PMS_P1;PMS_P2;Temp;Humidity;BMP_temperature;BMP_pressure;BME280_temperature;BME280_humidity;BME280_pressure;Samples;Min_cycle;Max_cycle;Signal;HPM_P1;HPM_P2
2021/08/25 00:01:32;;;;;;;5.80;2.10;;;;;;;;;;5051487;28;20517;-71
2021/08/25 00:03:58;;;;;;;9.70;2.50;;;;;;;;;;5053071;28;20017;-72
2021/08/25 00:06:23;;;;;;;5.75;2.30;;;;;;;;;;5095342;23;20377;-66
2021/08/25 00:08:48;;;;;;;10.50;2.95;;;;;;;;;;5134195;27;20037;-67
2021/08/25 00:11:14;;;;;;;6.00;2.58;;;;;;;;;;5134456;27;20373;-69
2021/08/25 00:13:39;;;;;;;5.43;2.55;;;;;;;;;;5134073;27;20449;-69
2021/08/25 00:16:04;;;;;;;9.17;2.37;;;;;;;;;;5134354;27;20082;-68
2021/08/25 00:18:30;;;;;;;5.60;2.28;;;;;;;;;;5129751;27;20265;-68
2021/08/25 00:20:55;;;;;;;7.90;2.85;;;;;;;;;;5112342;28;20027;-68
2021/08/25 00:23:20;;;;;;;6.15;2.80;;;;;;;;;;5113694;28;20061;-69
2021/08/25 00:25:45;;;;;;;4.95;2.53;;;;;;;;;;5114084;27;20438;-68
2021/08/25 00:28:11;;;;;;;6.30;2.83;;;;;;;;;;5113548;28;20380;-68
2021/08/25 00:30:36;;;;;;;6.70;2.80;;;;;;;;;;5113835;28;20016;-68
2021/08/25 00:33:01;;;;;;;6.40;2.60;;;;;;;;;;5123054;27;20288;-68
2021/08/25 00:35:26;;;;;;;8.32;2.45;;;;;;;;;;5134441;27;20253;-71
2021/08/25 00:37:52;;;;;;;9.52;2.83;;;;;;;;;;5134059;27;20019;-69
2021/08/25 00:40:18;;;;;;;4.82;2.42;;;;;;;;;;5134186;27;20011;-69
2021/08/25 00:42:43;;;;;;;4.65;2.40;;;;;;;;;;5133544;27;20019;-69
2021/08/25 00:45:08;;;;;;;5.27;2.50;;;;;;;;;;5132375;27;20054;-68
2021/08/25 00:47:40;;;;;;;6.35;2.63;;;;;;;;;;5113511;27;20361;-70
2021/08/25 00:50:06;;;;;;;4.78;2.25;;;;;;;;;;5129472;27;20031;-69
2021/08/25 00:52:31;;;;;;;5.90;2.63;;;;;;;;;;5112956;28;20072;-69
2021/08/25 00:54:57;;;;;;;5.25;2.25;;;;;;;;;;5114244;27;20027;-69
2021/08/25 00:57:22;;;;;;;9.02;2.38;;;;;;;;;;5113043;28;20031;-69
2021/08/25 00:59:47;;;;;;;14.30;2.33;;;;;;;;;;5113068;27;20285;-69
2021/08/25 01:02:22;;;;;;;6.53;2.85;;;;;;;;;;5113180;27;20038;-70
2021/08/25 01:04:48;;;;;;;5.35;2.40;;;;;;;;;;5112889;28;20106;-69
2021/08/25 01:07:14;;;;;;;5.03;2.63;;;;;;;;;;5112866;28;20084;-68
2021/08/25 01:09:39;;;;;;;9.63;2.55;;;;;;;;;;5129223;27;20023;-68
2021/08/25 01:12:06;;;;;;;8.00;2.88;;;;;;;;;;5133185;27;20492;-68
2021/08/25 01:14:31;;;;;;;5.40;2.35;;;;;;;;;;5149350;27;20132;-68
2021/08/25 01:16:57;;;;;;;4.83;2.20;;;;;;;;;;5133477;27;20106;-68
2021/08/25 01:19:25;;;;;;;8.68;2.25;;;;;;;;;;5133413;27;20248;-70
2021/08/25 01:21:50;;;;;;;10.23;3.15;;;;;;;;;;5125633;27;20089;-70
2021/08/25 01:24:16;;;;;;;9.02;2.72;;;;;;;;;;5112707;28;20678;-68
2021/08/25 01:26:42;;;;;;;5.97;2.55;;;;;;;;;;5112737;28;20027;-68
2021/08/25 01:29:17;;;;;;;7.10;2.13;;;;;;;;;;5112871;27;20027;-69
2021/08/25 01:31:42;;;;;;;6.95;2.50;;;;;;;;;;5122869;27;20034;-68
2021/08/25 01:34:08;;;;;;;5.38;2.42;;;;;;;;;;5132799;27;20019;-68
2021/08/25 01:36:34;;;;;;;6.03;2.45;;;;;;;;;;5117419;27;20095;-68
2021/08/25 01:38:59;;;;;;;9.15;3.25;;;;;;;;;;5114219;27;20445;-68
2021/08/25 01:41:27;;;;;;;8.20;2.70;;;;;;;;;;5112478;28;20080;-69
2021/08/25 01:43:53;;;;;;;7.93;3.28;;;;;;;;;;5110494;28;20027;-68
2021/08/25 01:46:22;;;;;;;4.93;2.65;;;;;;;;;;5112244;27;20027;-68
2021/08/25 01:48:48;;;;;;;10.55;2.78;;;;;;;;;;5118945;27;20026;-68
2021/08/25 01:51:13;;;;;;;5.95;2.72;;;;;;;;;;5132574;27;20024;-71
2021/08/25 01:53:38;;;;;;;7.77;2.60;;;;;;;;;;5131979;27;20393;-68
2021/08/25 01:56:03;;;;;;;11.30;2.90;;;;;;;;;;5119253;27;20334;-71
2021/08/25 01:58:28;;;;;;;6.18;2.90;;;;;;;;;;5119557;27;20261;-68
2021/08/25 02:00:54;;;;;;;6.30;2.80;;;;;;;;;;5112243;28;20019;-69
2021/08/25 02:03:19;;;;;;;8.73;3.10;;;;;;;;;;5116141;27;20268;-68
2021/08/25 02:05:44;;;;;;;6.07;2.63;;;;;;;;;;5132465;27;20015;-69
2021/08/25 02:08:11;;;;;;;8.17;3.50;;;;;;;;;;5125101;27;20277;-69
2021/08/25 02:10:37;;;;;;;11.52;4.10;;;;;;;;;;5111787;28;20257;-69
2021/08/25 02:13:02;;;;;;;7.95;3.53;;;;;;;;;;5128962;27;20426;-68
2021/08/25 02:15:28;;;;;;;7.72;3.90;;;;;;;;;;5120144;27;20031;-69
2021/08/25 02:17:53;;;;;;;10.60;3.63;;;;;;;;;;5125920;27;20015;-70
2021/08/25 02:20:18;;;;;;;10.67;3.97;;;;;;;;;;5110587;28;20015;-69
2021/08/25 02:22:43;;;;;;;9.20;3.63;;;;;;;;;;5110911;28;20277;-68
2021/08/25 02:25:08;;;;;;;8.97;3.60;;;;;;;;;;5111110;28;20805;-69
2021/08/25 02:27:34;;;;;;;8.45;4.38;;;;;;;;;;5112642;27;20268;-68
2021/08/25 02:29:59;;;;;;;9.03;4.40;;;;;;;;;;5111546;28;20389;-68
2021/08/25 02:32:25;;;;;;;9.35;4.10;;;;;;;;;;5112450;27;20278;-68
2021/08/25 02:34:51;;;;;;;8.88;3.72;;;;;;;;;;5132022;27;20256;-68
2021/08/25 02:37:16;;;;;;;8.10;3.75;;;;;;;;;;5131969;27;20013;-68
2021/08/25 02:39:41;;;;;;;10.15;3.83;;;;;;;;;;5131299;27;20540;-68
2021/08/25 02:42:07;;;;;;;8.70;3.83;;;;;;;;;;5131539;27;20448;-69
2021/08/25 02:44:32;;;;;;;6.32;2.85;;;;;;;;;;5129825;27;20095;-68
2021/08/25 02:46:57;;;;;;;10.40;3.30;;;;;;;;;;5131450;27;20106;-69
2021/08/25 02:49:22;;;;;;;7.70;3.70;;;;;;;;;;5131392;27;20264;-69
2021/08/25 02:51:47;;;;;;;7.53;3.37;;;;;;;;;;5124292;27;20788;-69
2021/08/25 02:54:12;;;;;;;8.93;3.60;;;;;;;;;;5110968;28;20282;-68
2021/08/25 02:56:38;;;;;;;8.33;3.33;;;;;;;;;;5110772;28;20254;-68
2021/08/25 02:59:03;;;;;;;10.13;3.90;;;;;;;;;;5111186;28;20310;-68
2021/08/25 03:01:28;;;;;;;7.83;3.57;;;;;;;;;;5127067;27;20271;-69
2021/08/25 03:03:53;;;;;;;9.88;3.42;;;;;;;;;;5121622;27;20319;-68
2021/08/25 03:06:18;;;;;;;9.07;3.67;;;;;;;;;;5110732;28;20027;-68
2021/08/25 03:08:44;;;;;;;9.18;3.50;;;;;;;;;;5111040;28;20262;-70
2021/08/25 03:11:09;;;;;;;10.70;3.43;;;;;;;;;;5116478;28;20015;-68
2021/08/25 03:13:35;;;;;;;8.82;4.00;;;;;;;;;;5131373;27;20382;-68
2021/08/25 03:16:00;;;;;;;9.77;3.42;;;;;;;;;;5111541;27;20416;-69
2021/08/25 03:18:25;;;;;;;7.07;3.60;;;;;;;;;;5111068;28;20024;-68
2021/08/25 03:20:51;;;;;;;8.88;3.70;;;;;;;;;;5110546;28;20055;-68
2021/08/25 03:23:16;;;;;;;7.57;3.60;;;;;;;;;;5110622;28;20019;-68
2021/08/25 03:25:41;;;;;;;10.13;3.40;;;;;;;;;;5110419;28;20258;-69
2021/08/25 03:28:06;;;;;;;8.27;3.50;;;;;;;;;;5119347;28;20020;-69
2021/08/25 03:30:31;;;;;;;6.37;3.27;;;;;;;;;;5130969;27;20260;-69
2021/08/25 03:32:57;;;;;;;11.27;4.17;;;;;;;;;;5130716;27;20333;-69
2021/08/25 03:35:22;;;;;;;7.82;3.38;;;;;;;;;;5131210;27;20358;-69
2021/08/25 03:37:47;;;;;;;6.28;3.50;;;;;;;;;;5132593;27;20027;-69
2021/08/25 03:40:12;;;;;;;13.40;3.25;;;;;;;;;;5114683;28;20026;-68
2021/08/25 03:42:38;;;;;;;9.18;3.85;;;;;;;;;;5129688;27;20090;-68
2021/08/25 03:45:04;;;;;;;6.75;3.72;;;;;;;;;;5134979;27;20106;-69
2021/08/25 03:47:31;;;;;;;7.10;3.38;;;;;;;;;;5134184;27;20019;-70
2021/08/25 03:49:56;;;;;;;6.78;3.17;;;;;;;;;;5134772;27;20015;-68
2021/08/25 03:52:21;;;;;;;11.15;3.50;;;;;;;;;;5135079;27;20067;-69
2021/08/25 03:54:47;;;;;;;11.40;3.72;;;;;;;;;;5133198;27;20030;-68
2021/08/25 03:57:12;;;;;;;11.57;3.33;;;;;;;;;;5134722;27;20018;-68
2021/08/25 03:59:37;;;;;;;8.52;3.63;;;;;;;;;;5118323;27;20293;-68
2021/08/25 04:02:02;;;;;;;7.18;4.03;;;;;;;;;;5133991;27;20030;-69
2021/08/25 04:04:27;;;;;;;6.22;3.03;;;;;;;;;;5122026;27;20023;-69
2021/08/25 04:06:53;;;;;;;8.73;3.47;;;;;;;;;;5112637;28;20023;-69
2021/08/25 04:09:18;;;;;;;9.27;3.45;;;;;;;;;;5126097;27;20318;-68
2021/08/25 04:11:43;;;;;;;5.78;2.92;;;;;;;;;;5134262;27;20023;-72
2021/08/25 04:14:08;;;;;;;8.38;4.05;;;;;;;;;;5134315;27;20019;-68
2021/08/25 04:16:33;;;;;;;5.43;3.10;;;;;;;;;;5134253;27;20015;-68
2021/08/25 04:18:59;;;;;;;9.02;3.80;;;;;;;;;;5117231;27;20744;-69
2021/08/25 04:21:25;;;;;;;7.80;3.07;;;;;;;;;;5133742;27;20019;-68
2021/08/25 04:23:50;;;;;;;7.93;2.97;;;;;;;;;;5133777;27;20751;-69
2021/08/25 04:26:15;;;;;;;7.77;3.27;;;;;;;;;;5134355;27;20015;-68
2021/08/25 04:28:40;;;;;;;8.75;3.53;;;;;;;;;;5133589;27;20260;-69
2021/08/25 04:31:09;;;;;;;11.18;3.42;;;;;;;;;;5132002;27;20023;-68
2021/08/25 04:33:35;;;;;;;9.85;3.65;;;;;;;;;;5123070;27;20080;-69
2021/08/25 04:36:00;;;;;;;10.52;3.25;;;;;;;;;;5113434;28;20446;-68
2021/08/25 04:38:25;;;;;;;12.60;3.22;;;;;;;;;;5113960;27;20020;-69
2021/08/25 04:40:50;;;;;;;9.10;3.10;;;;;;;;;;5113304;28;20054;-68
2021/08/25 04:43:16;;;;;;;8.32;3.38;;;;;;;;;;5113398;28;20016;-69
2021/08/25 04:45:41;;;;;;;9.60;3.40;;;;;;;;;;5129335;27;20023;-69
2021/08/25 04:48:06;;;;;;;8.93;3.70;;;;;;;;;;5132951;27;20256;-68
2021/08/25 04:50:31;;;;;;;7.90;2.95;;;;;;;;;;5133871;27;20110;-70
2021/08/25 04:52:57;;;;;;;14.65;3.65;;;;;;;;;;5132390;27;20110;-68
2021/08/25 04:55:22;;;;;;;8.13;3.35;;;;;;;;;;5133960;27;20015;-68
2021/08/25 04:57:47;;;;;;;5.25;3.15;;;;;;;;;;5123055;27;20030;-69
2021/08/25 05:00:12;;;;;;;7.93;3.22;;;;;;;;;;5133555;27;20018;-68
2021/08/25 05:02:38;;;;;;;6.35;3.13;;;;;;;;;;5133390;27;20027;-69
2021/08/25 05:05:03;;;;;;;14.30;3.70;;;;;;;;;;5133403;27;20022;-68
2021/08/25 05:07:28;;;;;;;8.18;3.08;;;;;;;;;;5120200;27;20673;-69
2021/08/25 05:09:54;;;;;;;6.27;3.03;;;;;;;;;;5129187;27;20106;-70
2021/08/25 05:12:19;;;;;;;8.93;2.70;;;;;;;;;;5132979;27;20674;-69
2021/08/25 05:14:44;;;;;;;10.57;3.30;;;;;;;;;;5127761;27;20285;-69
2021/08/25 05:17:09;;;;;;;7.57;3.37;;;;;;;;;;5124930;27;20106;-69
2021/08/25 05:19:34;;;;;;;7.33;3.03;;;;;;;;;;5118692;27;20739;-69
2021/08/25 05:22:00;;;;;;;8.93;3.33;;;;;;;;;;5112471;28;20268;-68
2021/08/25 05:24:25;;;;;;;7.60;3.22;;;;;;;;;;5112807;28;20316;-68
2021/08/25 05:26:51;;;;;;;11.77;2.97;;;;;;;;;;5112084;28;20067;-68
2021/08/25 05:29:16;;;;;;;5.93;3.47;;;;;;;;;;5112526;28;20500;-68
2021/08/25 05:31:41;;;;;;;13.03;3.37;;;;;;;;;;5110669;28;20080;-68
2021/08/25 05:34:06;;;;;;;4.23;2.10;;;;;;;;;;5121113;27;20750;-68
2021/08/25 05:36:31;;;;;;;10.68;4.25;;;;;;;;;;5132495;27;20307;-68
2021/08/25 05:38:57;;;;;;;12.18;4.10;;;;;;;;;;5132484;27;20026;-68
2021/08/25 05:41:22;;;;;;;7.22;2.97;;;;;;;;;;5131304;27;20639;-68
2021/08/25 05:43:47;;;;;;;6.03;2.97;;;;;;;;;;5132358;27;20066;-68
2021/08/25 05:46:12;;;;;;;9.90;4.00;;;;;;;;;;5114797;27;20272;-68
2021/08/25 05:48:37;;;;;;;8.75;2.75;;;;;;;;;;5127702;27;20019;-69
2021/08/25 05:51:03;;;;;;;10.00;4.40;;;;;;;;;;5120435;27;20016;-68
2021/08/25 05:53:28;;;;;;;10.55;3.50;;;;;;;;;;5111883;28;20334;-68
2021/08/25 05:55:53;;;;;;;7.47;3.53;;;;;;;;;;5123436;27;20019;-68
2021/08/25 05:58:18;;;;;;;7.97;3.13;;;;;;;;;;5113199;27;20015;-68
2021/08/25 06:00:43;;;;;;;10.98;3.67;;;;;;;;;;5117309;27;20750;-68
2021/08/25 06:03:09;;;;;;;15.00;3.33;;;;;;;;;;5132039;27;20027;-68
2021/08/25 06:05:34;;;;;;;7.82;3.55;;;;;;;;;;5131664;27;20023;-70
2021/08/25 06:07:59;;;;;;;10.20;4.05;;;;;;;;;;5132616;27;20558;-68
2021/08/25 06:10:24;;;;;;;8.23;2.88;;;;;;;;;;5127915;27;20068;-68
2021/08/25 06:12:49;;;;;;;10.18;3.63;;;;;;;;;;5117862;27;20418;-68
2021/08/25 06:15:15;;;;;;;7.38;3.30;;;;;;;;;;5119964;27;20015;-68
2021/08/25 06:17:40;;;;;;;6.93;3.40;;;;;;;;;;5111240;28;20035;-68
2021/08/25 06:20:05;;;;;;;8.83;3.97;;;;;;;;;;5111893;27;20241;-68
2021/08/25 06:22:31;;;;;;;9.35;3.45;;;;;;;;;;5111215;28;20797;-68
2021/08/25 06:24:56;;;;;;;13.45;4.28;;;;;;;;;;5111296;28;20019;-68
2021/08/25 06:27:23;;;;;;;5.78;3.20;;;;;;;;;;5114263;27;20097;-68
2021/08/25 06:29:48;;;;;;;9.40;3.80;;;;;;;;;;5131914;27;20104;-68
2021/08/25 06:32:13;;;;;;;10.17;4.03;;;;;;;;;;5131473;27;20058;-68
2021/08/25 06:34:38;;;;;;;8.52;3.53;;;;;;;;;;5130691;27;20257;-68
2021/08/25 06:37:03;;;;;;;8.07;3.70;;;;;;;;;;5131344;27;20027;-69
2021/08/25 06:39:29;;;;;;;13.53;4.03;;;;;;;;;;5131835;27;20012;-69
2021/08/25 06:41:54;;;;;;;8.33;3.53;;;;;;;;;;5121273;27;20977;-69
2021/08/25 06:44:19;;;;;;;11.57;4.38;;;;;;;;;;5111509;28;20304;-67
2021/08/25 06:46:44;;;;;;;10.27;3.33;;;;;;;;;;5110958;28;20020;-69
2021/08/25 06:49:09;;;;;;;10.47;3.73;;;;;;;;;;5110806;28;20047;-69
2021/08/25 06:51:35;;;;;;;7.30;3.05;;;;;;;;;;5121870;27;20280;-69
2021/08/25 06:54:00;;;;;;;13.32;3.67;;;;;;;;;;5118000;27;20020;-69
2021/08/25 06:56:25;;;;;;;12.48;4.00;;;;;;;;;;5130726;27;20030;-69
2021/08/25 06:58:50;;;;;;;10.93;3.50;;;;;;;;;;5116946;27;20026;-69
2021/08/25 07:01:15;;;;;;;9.97;3.83;;;;;;;;;;5111265;28;20023;-69
2021/08/25 07:03:41;;;;;;;10.60;3.47;;;;;;;;;;5110778;28;20261;-70
2021/08/25 07:06:06;;;;;;;;;;;;;;;;;;5111030;28;20245;-70
2021/08/25 07:08:31;;;;;;;;;;;;;;;;;;5111739;28;19907;-68
2021/08/25 07:10:56;;;;;;;6.78;3.58;;;;;;;;;;5116763;28;20422;-67
2021/08/25 07:13:22;;;;;;;11.82;3.97;;;;;;;;;;5120512;27;20104;-68
2021/08/25 07:15:47;;;;;;;7.70;3.70;;;;;;;;;;5110925;28;20023;-68
2021/08/25 07:18:12;;;;;;;6.77;3.10;;;;;;;;;;5110481;28;20111;-67
2021/08/25 07:20:37;;;;;;;7.83;3.53;;;;;;;;;;5113617;28;20261;-68
2021/08/25 07:23:03;;;;;;;7.57;3.37;;;;;;;;;;5112988;27;20623;-68
2021/08/25 07:25:28;;;;;;;6.20;3.25;;;;;;;;;;5110967;28;20262;-68
2021/08/25 07:27:53;;;;;;;8.90;3.25;;;;;;;;;;5110546;28;20051;-68
2021/08/25 07:30:18;;;;;;;6.70;3.07;;;;;;;;;;5110725;28;20076;-68
2021/08/25 07:32:43;;;;;;;5.47;2.80;;;;;;;;;;5114600;28;20281;-68
2021/08/25 07:35:10;;;;;;;5.17;3.00;;;;;;;;;;5120881;27;20307;-68
2021/08/25 07:37:35;;;;;;;6.72;3.38;;;;;;;;;;5111369;27;20012;-67
2021/08/25 07:40:01;;;;;;;9.15;3.28;;;;;;;;;;5110590;28;20043;-68
2021/08/25 07:42:26;;;;;;;6.85;3.22;;;;;;;;;;5118756;28;20433;-68
2021/08/25 07:44:51;;;;;;;6.83;3.40;;;;;;;;;;5131170;27;20353;-68
2021/08/25 07:47:16;;;;;;;4.60;2.80;;;;;;;;;;5131099;27;20030;-69
2021/08/25 07:49:42;;;;;;;6.50;3.13;;;;;;;;;;5113904;27;20019;-68
2021/08/25 07:52:07;;;;;;;11.23;3.80;;;;;;;;;;5110645;28;20019;-68
2021/08/25 07:54:32;;;;;;;7.43;3.30;;;;;;;;;;5110632;28;20026;-69
2021/08/25 07:56:57;;;;;;;10.17;4.00;;;;;;;;;;5110515;28;20250;-69
2021/08/25 07:59:22;;;;;;;6.77;3.23;;;;;;;;;;5110586;28;20354;-68
2021/08/25 08:01:48;;;;;;;7.10;3.63;;;;;;;;;;5112102;28;20035;-69
2021/08/25 08:04:13;;;;;;;9.23;3.30;;;;;;;;;;5110233;27;20077;-69
2021/08/25 08:06:38;;;;;;;14.43;3.87;;;;;;;;;;5110328;28;20063;-68
2021/08/25 08:09:03;;;;;;;5.90;3.53;;;;;;;;;;5110373;28;20385;-68
2021/08/25 08:11:28;;;;;;;9.48;4.00;;;;;;;;;;5110349;28;20757;-69
2021/08/25 08:13:54;;;;;;;6.70;3.30;;;;;;;;;;5126282;28;20495;-69
2021/08/25 08:16:20;;;;;;;9.73;4.23;;;;;;;;;;5121026;27;20019;-69
2021/08/25 08:19:17;;;;;;;8.05;4.43;;;;;;;;;;5124921;27;20085;-68
2021/08/25 08:21:42;;;;;;;8.55;3.90;;;;;;;;;;5113270;27;20096;-69
2021/08/25 08:24:08;;;;;;;6.65;4.00;;;;;;;;;;5124093;27;20485;-69
2021/08/25 08:26:33;;;;;;;7.75;3.67;;;;;;;;;;5130806;27;20449;-69
2021/08/25 08:28:59;;;;;;;6.50;3.50;;;;;;;;;;5121724;27;20434;-69
2021/08/25 08:31:25;;;;;;;6.80;3.60;;;;;;;;;;5113707;28;20311;-69
2021/08/25 08:33:50;;;;;;;7.45;3.95;;;;;;;;;;5129743;27;20073;-68
2021/08/25 08:36:16;;;;;;;5.07;3.20;;;;;;;;;;5134180;27;20364;-68
2021/08/25 08:38:41;;;;;;;9.43;3.60;;;;;;;;;;5134305;27;20015;-69
2021/08/25 08:41:06;;;;;;;11.13;4.10;;;;;;;;;;5144971;27;20011;-69
2021/08/25 08:43:31;;;;;;;8.02;3.83;;;;;;;;;;5132992;27;20015;-66
2021/08/25 08:45:57;;;;;;;4.82;3.05;;;;;;;;;;5133959;27;20570;-68
2021/08/25 08:48:22;;;;;;;9.65;3.38;;;;;;;;;;5133851;27;20027;-68
2021/08/25 08:50:47;;;;;;;5.35;2.97;;;;;;;;;;5133825;27;20029;-69
2021/08/25 08:53:13;;;;;;;7.90;3.30;;;;;;;;;;5131322;27;20026;-68
2021/08/25 08:55:38;;;;;;;5.03;3.33;;;;;;;;;;5133861;27;20469;-68
2021/08/25 08:58:05;;;;;;;13.07;3.70;;;;;;;;;;5133561;27;20068;-68
2021/08/25 09:00:30;;;;;;;7.03;3.38;;;;;;;;;;5133671;27;20019;-67
2021/08/25 09:02:56;;;;;;;7.65;3.95;;;;;;;;;;5131561;27;20516;-68
2021/08/25 09:05:22;;;;;;;5.72;3.22;;;;;;;;;;5148775;27;20046;-68
2021/08/25 09:07:48;;;;;;;8.88;3.30;;;;;;;;;;5133454;27;20103;-68
2021/08/25 09:10:19;;;;;;;7.88;3.75;;;;;;;;;;5133438;27;20029;-68
2021/08/25 09:12:48;;;;;;;7.75;3.00;;;;;;;;;;5133048;27;20488;-67
2021/08/25 09:15:17;;;;;;;9.95;3.13;;;;;;;;;;5126935;27;20071;-68
2021/08/25 09:17:42;;;;;;;7.23;3.53;;;;;;;;;;5119890;27;20103;-68
2021/08/25 09:20:09;;;;;;;7.47;3.20;;;;;;;;;;5113095;27;20345;-68
2021/08/25 09:22:34;;;;;;;9.23;3.38;;;;;;;;;;5111349;27;20050;-67
2021/08/25 09:24:59;;;;;;;5.63;3.28;;;;;;;;;;5112605;28;20469;-68
2021/08/25 09:27:25;;;;;;;8.10;3.30;;;;;;;;;;5131012;27;20023;-67
2021/08/25 09:29:55;;;;;;;5.13;2.80;;;;;;;;;;5132972;27;20102;-68
2021/08/25 09:32:22;;;;;;;7.80;2.97;;;;;;;;;;5123371;27;20022;-68
2021/08/25 09:34:53;;;;;;;5.45;2.75;;;;;;;;;;5124702;27;20104;-69
2021/08/25 09:37:18;;;;;;;8.30;3.58;;;;;;;;;;5127172;27;20026;-68
2021/08/25 09:39:47;;;;;;;7.60;3.38;;;;;;;;;;5132248;27;20090;-68
2021/08/25 09:42:15;;;;;;;8.67;3.10;;;;;;;;;;5112058;28;20053;-68
2021/08/25 09:44:41;;;;;;;9.65;3.20;;;;;;;;;;5112604;27;20027;-69
2021/08/25 09:47:06;;;;;;;7.32;3.40;;;;;;;;;;5112127;28;20020;-69
2021/08/25 09:49:31;;;;;;;6.25;3.28;;;;;;;;;;5127168;27;20023;-68
2021/08/25 09:51:56;;;;;;;24.67;4.57;;;;;;;;;;5132431;27;20098;-68
2021/08/25 09:54:22;;;;;;;5.82;3.17;;;;;;;;;;5132220;27;20362;-68
2021/08/25 09:56:50;;;;;;;6.30;3.70;;;;;;;;;;5132519;27;20019;-68
2021/08/25 09:59:15;;;;;;;6.82;3.58;;;;;;;;;;5132421;27;20102;-67
2021/08/25 10:01:41;;;;;;;11.47;2.63;;;;;;;;;;5132505;27;20102;-68
2021/08/25 10:04:07;;;;;;;9.75;3.30;;;;;;;;;;5119990;27;20023;-68
2021/08/25 10:06:34;;;;;;;9.82;3.25;;;;;;;;;;5111802;28;20485;-69
2021/08/25 10:09:00;;;;;;;10.88;4.72;;;;;;;;;;5111632;28;20385;-69
2021/08/25 10:11:28;;;;;;;8.13;3.23;;;;;;;;;;5111859;28;20011;-69
2021/08/25 10:13:54;;;;;;;6.13;3.05;;;;;;;;;;5112034;27;20743;-69
2021/08/25 10:16:36;;;;;;;7.78;2.97;;;;;;;;;;5111412;28;20016;-69
2021/08/25 10:19:20;;;;;;;6.68;3.40;;;;;;;;;;5111280;28;20047;-69
2021/08/25 10:21:45;;;;;;;8.95;3.88;;;;;;;;;;5119981;27;20019;-68
2021/08/25 10:24:10;;;;;;;7.43;3.65;;;;;;;;;;5117698;27;20483;-69
2021/08/25 10:26:54;;;;;;;9.73;4.13;;;;;;;;;;5113198;27;20023;-69
2021/08/25 10:29:19;;;;;;;11.73;3.45;;;;;;;;;;5124678;27;20027;-68
2021/08/25 10:31:48;;;;;;;5.87;3.33;;;;;;;;;;5117403;27;20080;-68
2021/08/25 10:34:14;;;;;;;6.28;3.15;;;;;;;;;;5117194;27;20019;-69
2021/08/25 10:36:39;;;;;;;9.57;3.70;;;;;;;;;;5118683;27;20008;-69
2021/08/25 10:39:24;;;;;;;10.77;4.63;;;;;;;;;;5129535;27;20514;-69
2021/08/25 10:41:49;;;;;;;8.30;3.60;;;;;;;;;;5127903;27;20274;-67
2021/08/25 10:44:34;;;;;;;7.97;3.70;;;;;;;;;;5121811;27;20026;-68
2021/08/25 10:47:03;;;;;;;13.30;4.60;;;;;;;;;;5124552;27;20874;-68
2021/08/25 10:49:38;;;;;;;6.05;2.88;;;;;;;;;;5126251;27;20061;-71
2021/08/25 10:52:07;;;;;;;6.32;3.55;;;;;;;;;;5131166;27;20637;-69
2021/08/25 10:54:33;;;;;;;6.32;3.15;;;;;;;;;;5140144;27;20097;-67
2021/08/25 10:57:09;;;;;;;11.07;4.18;;;;;;;;;;5149667;27;20067;-68
2021/08/25 10:59:34;;;;;;;6.70;3.50;;;;;;;;;;5129970;27;20011;-70
2021/08/25 11:02:00;;;;;;;7.00;3.30;;;;;;;;;;5110899;28;20072;-71
2021/08/25 11:04:25;;;;;;;14.25;4.05;;;;;;;;;;5117168;27;20098;-69
2021/08/25 11:06:52;;;;;;;7.20;3.78;;;;;;;;;;5131215;27;20035;-68
2021/08/25 11:09:26;;;;;;;7.18;3.83;;;;;;;;;;5131309;27;20505;-68
2021/08/25 11:11:51;;;;;;;11.93;3.88;;;;;;;;;;5121808;27;20062;-69
2021/08/25 11:14:17;;;;;;;7.43;3.70;;;;;;;;;;5122945;27;20096;-69
2021/08/25 11:16:43;;;;;;;9.52;3.63;;;;;;;;;;5110960;28;20262;-68
2021/08/25 11:19:18;;;;;;;6.25;3.45;;;;;;;;;;5122523;28;20022;-69
2021/08/25 11:21:43;;;;;;;6.80;3.33;;;;;;;;;;5129387;27;20080;-67
2021/08/25 11:24:08;;;;;;;8.30;3.93;;;;;;;;;;5130008;27;20472;-69
2021/08/25 11:26:33;;;;;;;7.07;3.27;;;;;;;;;;5134673;27;20058;-69
2021/08/25 11:28:59;;;;;;;10.43;3.70;;;;;;;;;;5122873;27;20385;-70
2021/08/25 11:31:24;;;;;;;8.30;4.10;;;;;;;;;;5119022;28;20031;-69
2021/08/25 11:33:50;;;;;;;12.63;3.97;;;;;;;;;;5130966;27;20493;-69
2021/08/25 11:36:15;;;;;;;10.57;3.05;;;;;;;;;;5114890;27;20516;-69
2021/08/25 11:38:40;;;;;;;8.43;4.17;;;;;;;;;;5110509;28;20121;-69
2021/08/25 11:41:05;;;;;;;10.80;3.30;;;;;;;;;;5110524;28;20512;-69
2021/08/25 11:43:31;;;;;;;8.55;4.13;;;;;;;;;;5110279;28;20071;-69
2021/08/25 11:45:56;;;;;;;13.20;3.47;;;;;;;;;;5110441;28;20043;-69
2021/08/25 11:48:25;;;;;;;6.55;3.67;;;;;;;;;;5112835;28;20033;-68
2021/08/25 11:50:51;;;;;;;7.35;3.78;;;;;;;;;;5122922;28;20026;-70
2021/08/25 11:53:17;;;;;;;7.70;3.80;;;;;;;;;;5130681;27;20373;-69
2021/08/25 11:55:43;;;;;;;10.98;4.18;;;;;;;;;;5131030;27;20011;-69
2021/08/25 11:58:27;;;;;;;11.27;4.75;;;;;;;;;;5133327;27;20537;-69
2021/08/25 12:00:53;;;;;;;9.27;4.60;;;;;;;;;;5135139;27;20020;-71
2021/08/25 12:03:18;;;;;;;8.45;3.78;;;;;;;;;;5133612;27;20023;-70
2021/08/25 12:05:54;;;;;;;7.50;3.83;;;;;;;;;;5132096;27;20022;-69
2021/08/25 12:08:19;;;;;;;14.63;4.88;;;;;;;;;;5106484;22;20384;-71
2021/08/25 12:10:48;;;;;;;11.18;3.80;;;;;;;;;;5073847;28;20481;-72
2021/08/25 12:13:32;;;;;;;8.23;4.05;;;;;;;;;;5054617;28;20497;-71
2021/08/25 12:15:58;;;;;;;8.35;4.88;;;;;;;;;;5053441;28;20025;-72
2021/08/25 12:18:24;;;;;;;8.57;3.80;;;;;;;;;;5038218;28;20052;-71
2021/08/25 12:20:51;;;;;;;9.85;4.13;;;;;;;;;;5053250;28;20040;-71
2021/08/25 12:23:17;;;;;;;10.77;4.93;;;;;;;;;;5035106;28;20024;-71
2021/08/25 12:25:49;;;;;;;8.90;4.38;;;;;;;;;;5053338;28;20025;-72
2021/08/25 12:28:16;;;;;;;13.35;4.63;;;;;;;;;;5052839;28;20049;-71
2021/08/25 12:30:42;;;;;;;13.70;5.75;;;;;;;;;;5052612;28;20025;-72
2021/08/25 12:33:08;;;;;;;7.18;3.90;;;;;;;;;;5052564;28;20498;-72
2021/08/25 12:35:34;;;;;;;8.48;4.38;;;;;;;;;;5052472;28;20106;-71
2021/08/25 12:37:59;;;;;;;7.43;3.40;;;;;;;;;;5053143;28;20483;-72
2021/08/25 12:40:26;;;;;;;8.02;3.90;;;;;;;;;;5052551;28;20025;-72
2021/08/25 12:42:52;;;;;;;12.07;4.68;;;;;;;;;;5052661;28;20071;-71
2021/08/25 12:45:17;;;;;;;12.73;4.10;;;;;;;;;;5052915;28;20048;-71
2021/08/25 12:47:45;;;;;;;10.07;4.53;;;;;;;;;;5052865;28;20121;-71
2021/08/25 12:50:10;;;;;;;9.65;5.35;;;;;;;;;;5052956;28;20025;-71
2021/08/25 12:52:35;;;;;;;6.97;3.60;;;;;;;;;;5052341;28;20195;-71
2021/08/25 12:55:00;;;;;;;7.30;4.30;;;;;;;;;;5052702;28;20364;-71
2021/08/25 12:57:26;;;;;;;9.98;4.78;;;;;;;;;;5052536;28;20608;-71
2021/08/25 12:59:51;;;;;;;11.07;4.80;;;;;;;;;;5051922;28;20016;-71
2021/08/25 13:02:17;;;;;;;14.50;4.83;;;;;;;;;;5051977;28;20056;-71
2021/08/25 13:04:42;;;;;;;10.07;4.53;;;;;;;;;;5052071;28;20362;-71
2021/08/25 13:07:10;;;;;;;12.07;4.03;;;;;;;;;;5051644;28;20028;-71
2021/08/25 13:09:36;;;;;;;13.70;4.82;;;;;;;;;;5052124;28;20033;-71
2021/08/25 13:12:01;;;;;;;9.77;4.30;;;;;;;;;;5052191;28;20021;-71
2021/08/25 13:14:26;;;;;;;7.27;4.17;;;;;;;;;;5052691;28;20090;-71
2021/08/25 13:16:53;;;;;;;15.27;4.80;;;;;;;;;;5038562;28;20693;-71
2021/08/25 13:19:18;;;;;;;10.48;5.07;;;;;;;;;;5031841;28;20040;-71
2021/08/25 13:21:43;;;;;;;11.95;4.32;;;;;;;;;;5032211;28;20014;-71
2021/08/25 13:24:08;;;;;;;10.37;5.03;;;;;;;;;;5031750;28;20021;-71
2021/08/25 13:26:34;;;;;;;10.80;4.83;;;;;;;;;;5038571;28;20490;-71
2021/08/25 13:28:59;;;;;;;11.70;5.03;;;;;;;;;;5046238;28;20017;-71
2021/08/25 13:31:24;;;;;;;11.53;4.93;;;;;;;;;;5035725;28;20029;-72
2021/08/25 13:33:49;;;;;;;12.77;5.87;;;;;;;;;;5051643;28;20349;-70
2021/08/25 13:36:14;;;;;;;11.03;5.30;;;;;;;;;;5037786;28;20104;-70
2021/08/25 13:38:40;;;;;;;13.50;5.00;;;;;;;;;;5044018;28;20039;-71
2021/08/25 13:41:05;;;;;;;11.07;4.88;;;;;;;;;;5031786;28;20029;-71
2021/08/25 13:43:30;;;;;;;10.23;4.75;;;;;;;;;;5031509;28;20029;-71
2021/08/25 13:45:56;;;;;;;11.02;5.15;;;;;;;;;;5032003;28;20025;-71
2021/08/25 13:48:21;;;;;;;14.33;5.03;;;;;;;;;;5038690;28;20067;-71
2021/08/25 13:50:46;;;;;;;10.40;4.90;;;;;;;;;;5031417;28;20260;-71
2021/08/25 13:53:11;;;;;;;14.13;5.00;;;;;;;;;;5031185;28;20334;-71
2021/08/25 13:55:37;;;;;;;11.07;5.43;;;;;;;;;;5031437;28;20268;-71
2021/08/25 13:58:02;;;;;;;13.07;5.17;;;;;;;;;;5031450;28;20040;-71
2021/08/25 14:00:27;;;;;;;11.07;5.50;;;;;;;;;;5031362;28;20618;-71
2021/08/25 14:02:52;;;;;;;12.30;5.77;;;;;;;;;;5030929;28;20033;-71
2021/08/25 14:05:17;;;;;;;18.87;5.50;;;;;;;;;;5031678;28;20108;-71
2021/08/25 14:07:43;;;;;;;8.90;4.95;;;;;;;;;;5043482;28;20683;-70
2021/08/25 14:10:08;;;;;;;13.07;5.13;;;;;;;;;;5051172;28;20025;-71
2021/08/25 14:12:33;;;;;;;13.18;5.53;;;;;;;;;;5051042;28;20362;-71
2021/08/25 14:14:58;;;;;;;12.70;6.05;;;;;;;;;;5051021;28;20163;-71
2021/08/25 14:17:24;;;;;;;16.95;7.07;;;;;;;;;;5050638;28;20507;-71
2021/08/25 14:19:49;;;;;;;13.63;6.10;;;;;;;;;;5050922;28;20049;-71
2021/08/25 14:22:14;;;;;;;12.90;5.93;;;;;;;;;;5050761;28;20436;-70
2021/08/25 14:24:39;;;;;;;14.10;5.93;;;;;;;;;;5050818;28;20031;-71
2021/08/25 14:27:04;;;;;;;12.67;6.53;;;;;;;;;;5032741;28;20259;-71
2021/08/25 14:29:30;;;;;;;14.27;6.55;;;;;;;;;;5050683;28;20260;-71
2021/08/25 14:31:55;;;;;;;14.25;5.80;;;;;;;;;;5050744;28;20056;-71
2021/08/25 14:34:20;;;;;;;16.90;5.90;;;;;;;;;;5048171;28;20009;-71